KFHR/FHR METAR and TAF weather

Enter ICAO airport designator
Station Type Date Time Source
KFHR METAR 2022/11/30 09:53 UTC NOAA

KFHR 300953Z AUTO 15016G28KT 10SM -RA BKN008 OVC013 03/02 A2938 RMK AO2 PK WND 16034/0931 CIG 007V012 SLP949 P0008 T00330022


Station Type Date Time Source
KFHR Decoded METAR 2022/11/30 09:53 UTC NOAA

FRIDAY HARBOR AIRPORT, WA, United States (KFHR) 48-31N 123-02W 32M
Nov 30, 2022 - 04:53 AM EST / 2022.11.30 0953 UTC
Wind: from the SSE (150 degrees) at 18 MPH (16 KT) gusting to 32 MPH (28 KT):0
Visibility: 10 mile(s):0
Sky conditions: overcast
Weather: light rain
Precipitation last hour: 0.08 inches
Temperature: 37.9 F (3.3 C)
Dew Point: 36.0 F (2.2 C)
Relative Humidity: 92%
Pressure (altimeter): 29.38 in. Hg (994 hPa)
ob: KFHR 300953Z AUTO 15016G28KT 10SM -RA BKN008 OVC013 03/02 A2938 RMK AO2 PK WND 16034/0931 CIG 007V012 SLP949 P0008 T00330022
cycle: 10

Station Type Date Time Source
KFHR TAF UTC NOAA

Error!

Example: see airport list